Time;durP1;ratioP1;P1;durP2;ratioP2;P2;SDS_P1;SDS_P2;PMS_P1;PMS_P2;Temp;Humidity;BMP_temperature;BMP_pressure;BME280_temperature;BME280_humidity;BME280_pressure;Samples;Min_cycle;Max_cycle;Signal;HPM_P1;HPM_P2
2021/08/19 00:01:58;;;;;;;7.78;5.05;;;;;;;15.76;87.05;95013.41;5067428;28;20043;-68
2021/08/19 00:04:25;;;;;;;6.88;4.30;;;;;;;15.80;87.11;95019.72;5066263;28;20049;-68
2021/08/19 00:06:51;;;;;;;8.85;4.60;;;;;;;15.63;87.17;95003.38;5065896;28;20044;-67
2021/08/19 00:09:18;;;;;;;8.52;4.30;;;;;;;15.66;86.89;95008.09;5066904;28;20048;-68
2021/08/19 00:11:45;;;;;;;8.05;3.78;;;;;;;15.70;86.95;95018.88;5067027;28;20045;-67
2021/08/19 00:14:12;;;;;;;9.68;4.38;;;;;;;15.68;86.73;95017.31;5066812;28;20489;-68
2021/08/19 00:16:38;;;;;;;8.43;4.68;;;;;;;15.74;86.89;95014.69;5066769;28;20052;-68
2021/08/19 00:19:05;;;;;;;9.70;4.55;;;;;;;15.68;86.11;95006.81;5066741;28;20044;-68
2021/08/19 00:21:32;;;;;;;7.75;4.55;;;;;;;15.76;86.16;95018.66;5066533;28;20047;-68
2021/08/19 00:23:59;;;;;;;7.90;4.35;;;;;;;15.76;85.96;95017.88;5066442;28;20033;-68
2021/08/19 00:26:26;;;;;;;6.13;4.07;;;;;;;15.65;85.04;95007.31;5066078;28;20036;-68
2021/08/19 00:28:52;;;;;;;6.43;4.03;;;;;;;15.55;85.09;95004.66;5066936;28;20041;-68
2021/08/19 00:31:22;;;;;;;9.45;4.72;;;;;;;15.63;85.03;95011.25;5066568;28;20052;-68
2021/08/19 00:33:50;;;;;;;9.10;4.43;;;;;;;15.59;84.99;95018.03;5066498;28;20094;-68
2021/08/19 00:36:17;;;;;;;5.70;3.55;;;;;;;15.61;85.17;95021.19;5066661;28;20048;-68
2021/08/19 00:38:45;;;;;;;5.68;3.95;;;;;;;15.62;84.97;95020.16;5066597;28;20047;-68
2021/08/19 00:41:12;;;;;;;9.40;3.97;;;;;;;15.71;85.01;95023.88;5048226;28;20056;-68
2021/08/19 00:43:39;;;;;;;4.88;3.53;;;;;;;15.65;84.86;95017.03;5066802;28;20048;-68
2021/08/19 00:46:29;;;;;;;5.72;3.90;;;;;;;15.48;85.06;95012.78;5066135;28;20052;-68
2021/08/19 00:48:59;;;;;;;9.20;4.13;;;;;;;15.37;85.42;95013.75;5065361;28;20037;-68
2021/08/19 00:51:49;;;;;;;7.43;4.38;;;;;;;15.42;85.44;95024.28;5065706;28;20489;-68
2021/08/19 00:54:18;;;;;;;9.00;3.60;;;;;;;15.40;85.14;95018.50;5065280;28;20032;-67
2021/08/19 00:56:45;;;;;;;5.90;3.85;;;;;;;15.40;85.23;95020.34;5066284;28;20041;-67
2021/08/19 00:59:12;;;;;;;7.55;3.95;;;;;;;15.49;85.66;95014.34;5064713;28;20052;-68
2021/08/19 01:01:39;;;;;;;8.32;4.38;;;;;;;15.36;85.21;95004.31;5064493;28;20035;-67
2021/08/19 01:04:07;;;;;;;7.38;3.72;;;;;;;15.29;85.32;95003.78;5065615;28;20784;-67
2021/08/19 01:06:37;;;;;;;6.75;4.38;;;;;;;15.33;85.27;95012.69;5065718;28;20058;-67
2021/08/19 01:09:05;;;;;;;6.63;3.95;;;;;;;15.29;86.24;95014.28;5065161;28;20040;-67
2021/08/19 01:11:38;;;;;;;10.05;4.38;;;;;;;15.35;86.13;95018.47;5063733;28;20041;-68
2021/08/19 01:14:05;;;;;;;7.90;4.00;;;;;;;15.44;86.20;95011.69;5065532;28;20417;-68
2021/08/19 01:16:33;;;;;;;6.32;4.10;;;;;;;15.45;86.70;94997.53;5064714;28;20044;-67
2021/08/19 01:19:00;;;;;;;9.02;4.50;;;;;;;15.53;85.96;95013.84;5065556;28;20035;-68
2021/08/19 01:21:26;;;;;;;6.82;4.30;;;;;;;15.52;84.98;95012.25;5064740;28;20040;-67
2021/08/19 01:23:53;;;;;;;13.07;5.10;;;;;;;15.42;84.55;95016.41;5064188;28;20059;-68
2021/08/19 01:26:21;;;;;;;7.20;4.72;;;;;;;15.26;85.03;95010.31;5064016;28;20404;-67
2021/08/19 01:28:49;;;;;;;7.60;4.72;;;;;;;15.20;85.32;95013.19;5064520;28;20055;-67
2021/08/19 01:31:18;;;;;;;5.57;3.90;;;;;;;15.08;86.18;95013.38;5063921;28;20115;-67
2021/08/19 01:33:47;;;;;;;9.05;4.65;;;;;;;14.88;86.60;95014.81;5064847;28;20493;-68
2021/08/19 01:36:15;;;;;;;5.63;4.35;;;;;;;14.76;87.62;95008.19;5065349;28;20048;-67
2021/08/19 01:38:43;;;;;;;9.57;4.65;;;;;;;14.72;87.94;95013.94;5064683;28;20041;-67
2021/08/19 01:41:11;;;;;;;5.68;4.43;;;;;;;14.80;88.33;95017.13;5065348;28;20040;-67
2021/08/19 01:43:39;;;;;;;7.57;4.55;;;;;;;14.81;89.14;95010.84;5065370;28;20044;-67
2021/08/19 01:46:08;;;;;;;9.35;4.20;;;;;;;14.83;89.20;95012.16;5065082;28;20123;-68
2021/08/19 01:48:36;;;;;;;9.20;5.43;;;;;;;14.80;88.59;95006.63;5064034;28;20109;-68
2021/08/19 01:51:04;;;;;;;7.43;4.43;;;;;;;14.78;88.94;95013.97;5065125;28;20049;-68
2021/08/19 01:53:30;;;;;;;8.00;4.95;;;;;;;14.60;89.73;95005.44;5065242;28;20029;-68
2021/08/19 01:55:58;;;;;;;7.45;4.78;;;;;;;14.48;89.72;94999.59;5065385;28;20037;-68
2021/08/19 01:58:26;;;;;;;7.63;4.80;;;;;;;14.39;90.38;95004.50;5064976;28;20480;-68
2021/08/19 02:00:53;;;;;;;7.03;4.90;;;;;;;14.30;90.52;95004.16;5065640;28;20056;-68
2021/08/19 02:03:21;;;;;;;9.77;4.80;;;;;;;14.30;90.46;95004.16;5045492;28;20048;-68
2021/08/19 02:05:48;;;;;;;10.07;4.82;;;;;;;14.29;90.64;95007.81;5065125;28;20062;-67
2021/08/19 02:08:16;;;;;;;6.05;4.65;;;;;;;14.27;90.63;95009.91;5064949;28;20046;-68
2021/08/19 02:10:44;;;;;;;9.93;4.40;;;;;;;14.25;90.38;94996.25;5065015;28;20105;-68
2021/08/19 02:13:12;;;;;;;7.05;5.07;;;;;;;14.29;89.93;95002.56;5046519;28;20055;-68
2021/08/19 02:15:40;;;;;;;7.68;5.15;;;;;;;14.26;89.74;95003.09;5064310;28;20044;-67
2021/08/19 02:18:07;;;;;;;6.82;5.18;;;;;;;14.24;89.82;95001.75;5064953;28;20059;-67
2021/08/19 02:20:35;;;;;;;6.55;4.47;;;;;;;14.28;89.61;95010.69;5065404;28;20037;-68
2021/08/19 02:23:03;;;;;;;13.13;5.00;;;;;;;14.23;89.49;95016.69;5065862;28;20048;-68
2021/08/19 02:25:31;;;;;;;8.63;5.07;;;;;;;14.15;89.75;95006.63;5067618;28;20044;-68
2021/08/19 02:27:58;;;;;;;8.88;5.25;;;;;;;14.16;90.02;95010.84;5068619;28;20044;-68
2021/08/19 02:30:26;;;;;;;13.70;4.85;;;;;;;13.98;89.83;94991.06;5069172;28;20426;-67
2021/08/19 02:32:55;;;;;;;7.22;4.35;;;;;;;14.11;89.85;95016.03;5068191;28;20036;-68
2021/08/19 02:35:27;;;;;;;9.07;4.63;;;;;;;14.12;89.92;95018.41;5068916;28;20045;-67
2021/08/19 02:37:55;;;;;;;8.30;4.65;;;;;;;14.13;89.35;95013.97;5068708;28;20523;-68
2021/08/19 02:40:23;;;;;;;9.82;4.90;;;;;;;14.13;89.11;95008.72;5068645;28;20063;-68
2021/08/19 02:42:50;;;;;;;6.13;4.55;;;;;;;14.08;88.69;95006.06;5068388;28;20043;-67
2021/08/19 02:45:18;;;;;;;17.88;4.32;;;;;;;14.03;89.14;95014.66;5067907;28;20481;-67
2021/08/19 02:47:46;;;;;;;10.43;5.07;;;;;;;13.95;88.81;95017.72;5049175;28;20045;-68
2021/08/19 02:50:14;;;;;;;11.07;4.50;;;;;;;13.80;89.74;95015.75;5068247;28;20033;-67
2021/08/19 02:52:41;;;;;;;11.10;4.55;;;;;;;13.72;90.01;95013.56;5067635;28;20052;-67
2021/08/19 02:55:08;;;;;;;11.25;6.25;;;;;;;13.68;89.59;95008.03;5067687;28;20053;-67
2021/08/19 02:57:35;;;;;;;8.05;4.53;;;;;;;13.57;90.14;95017.59;5067040;28;20052;-67
2021/08/19 03:00:04;;;;;;;8.25;4.93;;;;;;;13.63;90.12;95015.03;5068176;28;20053;-67
2021/08/19 03:02:31;;;;;;;6.75;4.75;;;;;;;13.66;89.76;95017.16;5067892;28;20033;-67
2021/08/19 03:04:58;;;;;;;6.75;4.75;;;;;;;13.70;89.61;95026.09;5068032;28;20040;-67
2021/08/19 03:07:25;;;;;;;15.82;7.03;;;;;;;13.73;90.14;95028.22;5068184;28;20433;-67
2021/08/19 03:09:52;;;;;;;7.25;4.50;;;;;;;13.77;89.70;95031.94;5068002;28;20282;-67
2021/08/19 03:12:18;;;;;;;10.10;4.85;;;;;;;13.81;89.23;95033.03;5067393;28;20039;-67
2021/08/19 03:14:45;;;;;;;10.27;5.00;;;;;;;13.84;88.47;95027.31;5067574;28;20040;-67
2021/08/19 03:17:12;;;;;;;7.35;4.70;;;;;;;13.85;88.69;95034.13;5067390;28;20786;-67
2021/08/19 03:19:39;;;;;;;10.35;4.90;;;;;;;13.78;89.02;95038.75;5067394;28;20044;-67
2021/08/19 03:22:07;;;;;;;9.30;4.50;;;;;;;13.88;88.06;95041.50;5067417;28;20483;-67
2021/08/19 03:24:35;;;;;;;9.57;5.43;;;;;;;13.90;87.05;95042.03;5066085;28;20036;-67
2021/08/19 03:27:03;;;;;;;7.32;4.88;;;;;;;13.91;86.83;95041.00;5065461;28;20056;-67
2021/08/19 03:29:32;;;;;;;9.55;5.10;;;;;;;13.85;86.65;95041.97;5067368;28;20036;-67
2021/08/19 03:31:59;;;;;;;13.50;5.47;;;;;;;13.82;86.93;95044.31;5067800;28;20032;-67
2021/08/19 03:34:26;;;;;;;10.05;4.90;;;;;;;13.70;88.00;95036.56;5065947;28;20494;-67
2021/08/19 03:36:54;;;;;;;10.80;5.45;;;;;;;13.60;87.66;95057.41;5083391;28;20043;-67
2021/08/19 03:39:23;;;;;;;8.13;4.70;;;;;;;13.50;87.74;95058.84;5049185;28;20048;-67
2021/08/19 03:41:50;;;;;;;10.50;5.32;;;;;;;13.43;88.15;95050.38;5067437;28;20128;-67
2021/08/19 03:44:17;;;;;;;9.98;5.05;;;;;;;13.35;88.26;95051.59;5067384;28;20063;-67
2021/08/19 03:46:44;;;;;;;11.65;5.05;;;;;;;13.34;88.54;95054.47;5067559;28;20444;-67
2021/08/19 03:49:11;;;;;;;7.55;4.43;;;;;;;13.23;89.04;95057.94;5067551;28;20047;-67
2021/08/19 03:51:37;;;;;;;6.03;4.68;;;;;;;13.17;89.59;95054.47;5067609;28;20067;-67
2021/08/19 03:54:04;;;;;;;10.15;5.00;;;;;;;13.20;89.25;95052.19;5066969;28;20120;-67
2021/08/19 03:56:32;;;;;;;8.65;5.20;;;;;;;13.23;89.32;95063.19;5067573;28;20040;-67
2021/08/19 03:58:59;;;;;;;6.93;5.22;;;;;;;13.26;89.54;95057.47;5067256;28;20047;-68
2021/08/19 04:01:26;;;;;;;8.77;4.80;;;;;;;13.24;89.27;95062.16;5066825;28;20044;-67
2021/08/19 04:03:53;;;;;;;9.30;4.97;;;;;;;13.23;89.76;95065.78;5066764;28;20037;-67
2021/08/19 04:06:19;;;;;;;8.68;5.03;;;;;;;13.13;90.18;95075.09;5067347;28;20048;-68
2021/08/19 04:08:46;;;;;;;13.65;5.95;;;;;;;13.19;90.18;95074.13;5066849;28;20063;-68
2021/08/19 04:11:13;;;;;;;14.43;5.80;;;;;;;13.14;90.32;95065.41;5067068;28;20040;-67
2021/08/19 04:13:40;;;;;;;10.20;6.28;;;;;;;13.10;90.99;95069.56;5066816;28;20048;-68
2021/08/19 04:16:07;;;;;;;7.03;5.28;;;;;;;13.16;91.47;95073.81;5067044;28;20052;-68
2021/08/19 04:18:34;;;;;;;10.50;5.43;;;;;;;13.23;nan;95074.44;5067053;28;20036;-68
2021/08/19 04:21:03;;;;;;;15.57;5.75;;;;;;;13.29;92.15;95070.06;5066046;28;20093;-67
2021/08/19 04:23:29;;;;;;;8.82;4.93;;;;;;;13.27;91.88;95064.28;5066314;28;20401;-67
2021/08/19 04:25:56;;;;;;;10.45;6.32;;;;;;;13.37;91.90;95074.91;5065316;28;20040;-68
2021/08/19 04:28:23;;;;;;;14.45;6.30;;;;;;;13.42;91.88;95077.59;5066577;28;20078;-67
2021/08/19 04:30:50;;;;;;;10.10;5.95;;;;;;;13.42;92.18;95061.91;5066453;28;20062;-68
2021/08/19 04:33:18;;;;;;;12.57;6.25;;;;;;;13.42;92.61;95076.81;5066578;28;20041;-68
2021/08/19 04:35:45;;;;;;;9.75;5.55;;;;;;;13.47;92.74;95080.28;5066011;28;20395;-67
2021/08/19 04:38:11;;;;;;;7.60;5.10;;;;;;;13.49;92.56;95072.97;5065320;28;20048;-67
2021/08/19 04:40:38;;;;;;;10.40;6.57;;;;;;;13.52;92.14;95080.34;5066446;28;20044;-69
2021/08/19 04:43:05;;;;;;;8.15;5.72;;;;;;;13.58;92.65;95076.75;5066229;28;20037;-68
2021/08/19 04:45:31;;;;;;;15.23;6.10;;;;;;;13.66;92.32;95077.34;5065330;28;20082;-68
2021/08/19 04:47:58;;;;;;;8.98;5.85;;;;;;;13.68;91.52;95070.06;5066333;28;20068;-68
2021/08/19 04:50:25;;;;;;;7.05;5.40;;;;;;;13.80;90.11;95083.03;5065783;28;20055;-68
2021/08/19 04:52:52;;;;;;;13.00;4.97;;;;;;;13.83;89.22;95083.31;5065861;28;20056;-68
2021/08/19 04:55:19;;;;;;;13.57;5.05;;;;;;;13.88;88.72;95079.97;5065934;28;20425;-68
2021/08/19 04:57:46;;;;;;;13.05;4.90;;;;;;;13.80;87.43;95065.47;5066095;28;20047;-68
2021/08/19 05:00:13;;;;;;;12.10;4.85;;;;;;;13.80;86.51;95070.72;5066167;28;20047;-68
2021/08/19 05:02:40;;;;;;;8.43;4.15;;;;;;;13.93;86.05;95083.41;5064991;28;20033;-69
2021/08/19 05:05:07;;;;;;;11.85;4.80;;;;;;;13.84;85.49;95074.41;5065656;28;20131;-68
2021/08/19 05:07:34;;;;;;;11.20;4.93;;;;;;;13.90;86.60;95076.06;5065982;28;20528;-68
2021/08/19 05:10:01;;;;;;;7.82;5.30;;;;;;;13.91;86.09;95082.09;5065833;28;20044;-68
2021/08/19 05:12:28;;;;;;;8.10;4.70;;;;;;;13.98;85.39;95074.06;5070717;28;20051;-68
2021/08/19 05:14:54;;;;;;;10.40;4.78;;;;;;;14.04;85.96;95083.53;5064682;28;20485;-68
2021/08/19 05:17:21;;;;;;;7.55;4.78;;;;;;;14.00;85.55;95085.06;5065349;28;20048;-68
2021/08/19 05:19:48;;;;;;;16.52;5.10;;;;;;;14.09;84.98;95083.59;5065393;28;20060;-68
2021/08/19 05:22:15;;;;;;;8.10;4.55;;;;;;;14.05;85.22;95095.59;5065466;28;20052;-68
2021/08/19 05:24:41;;;;;;;8.02;4.30;;;;;;;14.10;84.48;95090.44;5065418;28;20044;-68
2021/08/19 05:27:08;;;;;;;11.20;4.18;;;;;;;14.17;84.40;95088.41;5064467;28;20052;-68
2021/08/19 05:29:35;;;;;;;11.45;5.75;;;;;;;14.19;84.09;95088.94;5059197;28;20055;-69
2021/08/19 05:32:02;;;;;;;13.38;4.88;;;;;;;14.26;83.63;95092.16;5046350;28;20111;-69
2021/08/19 05:34:29;;;;;;;9.77;4.22;;;;;;;14.19;83.89;95086.31;5063102;28;20048;-69
2021/08/19 05:36:56;;;;;;;6.38;4.30;;;;;;;14.29;83.88;95091.66;5064513;28;20095;-69
2021/08/19 05:39:22;;;;;;;7.22;4.13;;;;;;;14.28;84.19;95094.53;5065173;28;20394;-69
2021/08/19 05:41:49;;;;;;;9.88;4.10;;;;;;;14.29;84.01;95094.25;5063716;28;20429;-68
2021/08/19 05:44:16;;;;;;;6.65;4.30;;;;;;;14.40;84.73;95086.50;5064378;28;20623;-68
2021/08/19 05:46:43;;;;;;;6.88;4.10;;;;;;;14.49;84.67;95095.50;5064931;28;20096;-69
2021/08/19 05:49:12;;;;;;;8.27;4.28;;;;;;;14.43;84.83;95092.03;5065036;28;20055;-69
2021/08/19 05:51:39;;;;;;;10.20;4.15;;;;;;;14.50;85.15;95092.63;5065194;28;20126;-69
2021/08/19 05:54:06;;;;;;;8.75;4.47;;;;;;;14.64;84.97;95087.81;5063312;28;20044;-69
2021/08/19 05:56:33;;;;;;;6.97;3.80;;;;;;;14.84;83.52;95091.63;5063741;28;20102;-69
2021/08/19 05:58:59;;;;;;;6.47;3.30;;;;;;;14.94;80.01;95091.69;5064855;28;20040;-69
2021/08/19 06:01:26;;;;;;;6.30;4.32;;;;;;;14.91;80.67;95081.72;5063996;28;20051;-69
2021/08/19 06:03:53;;;;;;;6.68;4.07;;;;;;;14.97;77.89;95096.44;5064609;28;20037;-69
2021/08/19 06:06:20;;;;;;;9.00;4.50;;;;;;;15.00;78.74;95101.19;5064969;28;20454;-69
2021/08/19 06:08:47;;;;;;;7.07;3.50;;;;;;;15.05;79.54;95088.13;5064779;28;20055;-69
2021/08/19 06:11:14;;;;;;;19.15;6.15;;;;;;;15.24;79.58;95090.31;5064885;28;20036;-69
2021/08/19 06:13:40;;;;;;;8.40;4.13;;;;;;;15.36;77.30;95093.56;5064858;28;20051;-69
2021/08/19 06:16:07;;;;;;;8.02;3.67;;;;;;;15.36;76.43;95083.06;5064632;28;20052;-69
2021/08/19 06:18:34;;;;;;;7.80;3.72;;;;;;;15.44;75.27;95082.56;5065292;28;20049;-69
2021/08/19 06:21:01;;;;;;;5.60;3.63;;;;;;;15.52;75.02;95080.50;5065422;28;20056;-69
2021/08/19 06:23:28;;;;;;;15.57;3.75;;;;;;;15.63;76.00;95061.13;5063527;28;20398;-69
2021/08/19 06:25:54;;;;;;;6.95;4.07;;;;;;;15.77;74.57;95083.28;5063371;28;20044;-69
2021/08/19 06:28:24;;;;;;;12.90;3.80;;;;;;;15.92;73.61;95084.34;5064415;28;20059;-69
2021/08/19 06:30:54;;;;;;;4.55;3.28;;;;;;;16.00;73.03;95081.22;5044803;28;20407;-69
2021/08/19 06:33:21;;;;;;;9.50;4.25;;;;;;;16.09;72.65;95079.69;5064864;28;20040;-69
2021/08/19 06:35:48;;;;;;;9.60;4.38;;;;;;;16.19;71.52;95074.44;5060937;28;20048;-69
2021/08/19 06:38:15;;;;;;;11.30;4.90;;;;;;;16.41;73.17;95081.31;5063162;28;20087;-69
2021/08/19 06:40:42;;;;;;;8.43;4.13;;;;;;;16.51;73.18;95075.28;5064234;28;20795;-69
2021/08/19 06:43:09;;;;;;;11.57;4.43;;;;;;;16.68;72.54;95069.78;5064352;28;20043;-68
2021/08/19 06:45:36;;;;;;;7.93;4.25;;;;;;;16.78;72.69;95069.75;5064064;28;20056;-67
2021/08/19 06:48:04;;;;;;;8.75;4.00;;;;;;;16.79;69.90;95073.97;5064393;28;20110;-67
2021/08/19 06:50:31;;;;;;;9.50;4.03;;;;;;;16.81;69.44;95063.97;5045444;28;20060;-67
2021/08/19 06:52:57;;;;;;;13.65;4.70;;;;;;;16.81;70.37;95069.25;5064932;28;20048;-67
2021/08/19 06:55:24;;;;;;;13.15;4.55;;;;;;;17.04;72.51;95064.53;5064944;28;20059;-67
2021/08/19 06:57:51;;;;;;;11.40;4.95;;;;;;;17.25;73.23;95060.81;5063644;28;20052;-68
2021/08/19 07:00:18;;;;;;;13.23;5.75;;;;;;;17.37;71.50;95060.50;5064961;28;20048;-68
2021/08/19 07:02:45;;;;;;;6.82;5.03;;;;;;;17.40;70.55;95054.69;5061590;28;20420;-68
2021/08/19 07:05:12;;;;;;;7.75;4.20;;;;;;;17.64;68.35;95070.66;5041198;28;20057;-67
2021/08/19 07:07:39;;;;;;;8.70;4.07;;;;;;;17.66;66.74;95063.28;5043612;28;20041;-67
2021/08/19 07:10:07;;;;;;;9.98;3.70;;;;;;;17.86;66.19;95072.19;5065247;28;20048;-67
2021/08/19 07:12:35;;;;;;;12.15;4.32;;;;;;;17.88;65.20;95070.06;5067849;28;20479;-68
2021/08/19 07:15:03;;;;;;;7.05;3.83;;;;;;;17.95;66.00;95070.56;5066461;28;20040;-68
2021/08/19 07:17:30;;;;;;;6.22;2.95;;;;;;;18.13;65.77;95062.06;5067313;28;20036;-68
2021/08/19 07:19:57;;;;;;;7.82;3.95;;;;;;;18.21;63.54;95054.63;5068019;28;20047;-68
2021/08/19 07:22:25;;;;;;;7.63;3.42;;;;;;;18.41;63.02;95067.66;5067201;28;20398;-70
2021/08/19 07:24:52;;;;;;;9.35;3.72;;;;;;;18.44;63.10;95055.78;5066827;28;20037;-69
2021/08/19 07:27:19;;;;;;;7.35;3.42;;;;;;;18.57;61.77;95054.38;5065615;28;20040;-69
2021/08/19 07:29:45;;;;;;;6.68;3.00;;;;;;;18.68;59.08;95061.94;5066143;28;20052;-69
2021/08/19 07:32:12;;;;;;;4.60;3.35;;;;;;;18.73;57.74;95063.75;5067551;28;20573;-68
2021/08/19 07:34:39;;;;;;;8.52;3.17;;;;;;;18.88;59.91;95062.84;5067139;28;20094;-69
2021/08/19 07:37:06;;;;;;;7.63;4.13;;;;;;;18.89;55.77;95057.31;5067467;28;20418;-70
2021/08/19 07:39:33;;;;;;;6.13;3.47;;;;;;;19.12;57.86;95059.47;5047225;28;20051;-69
2021/08/19 07:42:00;;;;;;;6.28;3.03;;;;;;;19.26;56.08;95061.16;5048342;28;20481;-68
2021/08/19 07:44:26;;;;;;;8.05;2.60;;;;;;;19.60;56.59;95065.56;5066946;28;20429;-68
2021/08/19 07:46:53;;;;;;;9.68;2.53;;;;;;;19.74;53.99;95054.34;5065974;28;20504;-69
2021/08/19 07:49:21;;;;;;;6.35;2.88;;;;;;;19.78;54.17;95045.56;5067554;28;20041;-69
2021/08/19 07:51:48;;;;;;;9.98;2.75;;;;;;;19.75;55.50;95040.84;5066062;28;20468;-69
2021/08/19 07:54:17;;;;;;;5.60;2.83;;;;;;;19.93;55.04;95044.56;5066345;28;20051;-69
2021/08/19 07:56:44;;;;;;;6.97;3.35;;;;;;;20.16;53.28;95050.09;5046645;28;20079;-68
2021/08/19 07:59:11;;;;;;;6.35;2.30;;;;;;;20.26;52.11;95023.53;5067104;28;20048;-69
2021/08/19 08:01:38;;;;;;;6.45;3.20;;;;;;;20.52;51.87;95036.34;5066602;28;20060;-69
2021/08/19 08:04:08;;;;;;;4.53;3.03;;;;;;;20.62;50.47;95047.59;5065917;28;20044;-68
2021/08/19 08:06:37;;;;;;;7.53;2.50;;;;;;;20.72;50.88;95041.34;5065566;28;20048;-69
2021/08/19 08:09:04;;;;;;;8.68;3.00;;;;;;;20.87;49.97;95032.38;5067263;28;20064;-69
2021/08/19 08:11:31;;;;;;;6.63;2.35;;;;;;;20.99;50.60;95039.84;5066579;28;20510;-69
2021/08/19 08:13:58;;;;;;;8.13;2.55;;;;;;;21.03;49.73;95040.84;5066942;28;20413;-69
2021/08/19 08:16:25;;;;;;;4.68;2.13;;;;;;;20.97;50.36;95036.69;5065285;28;20044;-69
2021/08/19 08:18:52;;;;;;;5.03;2.67;;;;;;;20.99;48.40;95032.69;5066560;28;20555;-69
2021/08/19 08:21:18;;;;;;;5.05;2.72;;;;;;;21.15;48.10;95033.19;5065684;28;20040;-70
2021/08/19 08:23:45;;;;;;;3.38;1.92;;;;;;;21.19;46.47;95034.19;5065544;28;20046;-70
2021/08/19 08:26:12;;;;;;;3.83;1.92;;;;;;;21.41;46.40;95021.34;5063917;28;20529;-71
2021/08/19 08:28:39;;;;;;;7.15;2.95;;;;;;;21.52;45.23;95018.22;5065909;28;20040;-71
2021/08/19 08:31:08;;;;;;;5.28;2.72;;;;;;;21.54;45.24;95021.38;5065318;28;20048;-70
2021/08/19 08:33:35;;;;;;;6.90;2.50;;;;;;;21.54;45.35;95029.31;5065896;28;20505;-71
2021/08/19 08:36:02;;;;;;;3.92;1.80;;;;;;;21.68;44.20;95007.31;5060920;28;20048;-70
2021/08/19 08:38:31;;;;;;;5.93;2.13;;;;;;;21.84;44.61;95011.22;5063510;28;20043;-70
2021/08/19 08:40:58;;;;;;;3.22;1.75;;;;;;;22.11;43.92;95009.56;5064258;28;20449;-70
2021/08/19 08:43:26;;;;;;;5.97;1.98;;;;;;;22.41;42.88;95007.34;5063739;28;21508;-70
2021/08/19 08:45:54;;;;;;;4.13;2.13;;;;;;;22.60;43.35;95007.94;5060895;28;20060;-70
2021/08/19 08:48:26;;;;;;;4.30;1.85;;;;;;;22.81;40.43;95010.88;5026009;28;20048;-70
2021/08/19 08:50:56;;;;;;;3.72;1.92;;;;;;;23.09;39.83;95008.88;5063131;28;20068;-71
2021/08/19 08:53:24;;;;;;;9.38;1.80;;;;;;;23.17;40.64;95012.63;5063736;28;20052;-71
2021/08/19 08:55:51;;;;;;;5.05;1.70;;;;;;;23.05;38.81;95005.25;5064575;28;20517;-69
2021/08/19 08:58:20;;;;;;;4.00;1.85;;;;;;;22.93;39.73;95002.34;5063330;28;20105;-70
2021/08/19 09:00:48;;;;;;;9.18;4.50;;;;;;;23.05;39.03;94999.94;5062062;28;20475;-69
2021/08/19 09:03:16;;;;;;;6.05;3.05;;;;;;;23.06;38.07;94996.19;5062615;28;20098;-69
2021/08/19 09:05:52;;;;;;;4.20;2.05;;;;;;;23.11;38.11;94994.50;5061454;28;20120;-69
2021/08/19 09:08:22;;;;;;;4.80;1.55;;;;;;;23.31;37.79;94993.16;5062123;28;20044;-69
2021/08/19 09:10:51;;;;;;;2.15;1.40;;;;;;;23.55;37.27;95000.72;5063428;28;20067;-71
2021/08/19 09:13:25;;;;;;;2.95;2.05;;;;;;;23.69;37.94;94996.06;5063601;28;20515;-71
2021/08/19 09:15:53;;;;;;;6.80;1.95;;;;;;;24.09;38.04;94988.00;5065095;28;20052;-70
2021/08/19 09:18:29;;;;;;;4.57;1.90;;;;;;;24.14;35.32;94989.75;5065946;28;20055;-70
2021/08/19 09:20:56;;;;;;;5.22;1.77;;;;;;;24.29;35.63;94991.13;5063925;28;20051;-70
2021/08/19 09:23:22;;;;;;;7.72;1.90;;;;;;;24.34;37.07;94983.00;5065117;28;20048;-71
2021/08/19 09:25:49;;;;;;;3.67;1.90;;;;;;;24.60;35.69;94986.44;5065308;28;20563;-71
2021/08/19 09:28:29;;;;;;;3.47;1.80;;;;;;;24.85;34.72;94996.56;5064512;28;20566;-70
2021/08/19 09:30:57;;;;;;;3.83;2.05;;;;;;;25.06;34.83;94991.34;5065101;28;20048;-70
2021/08/19 09:33:25;;;;;;;4.13;2.20;;;;;;;25.19;35.57;94985.00;5065629;28;20071;-70
2021/08/19 09:35:56;;;;;;;5.28;1.80;;;;;;;25.26;33.93;94979.97;5065704;28;20051;-71
2021/08/19 09:38:26;;;;;;;7.35;1.80;;;;;;;25.34;33.16;94976.50;5065955;28;20101;-70
2021/08/19 09:41:07;;;;;;;5.25;1.95;;;;;;;25.50;33.62;94983.97;5065852;28;20422;-71
2021/08/19 09:43:38;;;;;;;5.47;2.13;;;;;;;25.68;33.41;94966.75;5063929;28;20497;-71
2021/08/19 09:46:05;;;;;;;4.78;2.15;;;;;;;26.06;31.79;94963.22;5063912;28;20064;-71
2021/08/19 09:48:34;;;;;;;4.07;1.73;;;;;;;26.32;32.19;94970.22;5065263;28;20044;-71
2021/08/19 09:51:22;;;;;;;2.80;1.80;;;;;;;26.49;32.78;94959.38;5063733;28;20048;-71
2021/08/19 09:53:50;;;;;;;5.50;1.85;;;;;;;26.60;31.79;94958.97;5063087;28;20037;-73
2021/08/19 09:56:31;;;;;;;5.35;2.03;;;;;;;26.66;31.73;94957.69;5044539;28;20053;-71
2021/08/19 09:59:18;;;;;;;4.40;2.35;;;;;;;26.51;33.02;94951.81;5063440;28;20078;-72
2021/08/19 10:01:51;;;;;;;2.63;1.40;;;;;;;26.93;31.67;94950.94;5062808;28;20047;-72
2021/08/19 10:04:19;;;;;;;3.95;2.00;;;;;;;27.25;31.06;94938.59;5064580;28;20032;-72
2021/08/19 10:06:47;;;;;;;7.53;1.83;;;;;;;26.97;30.29;94945.69;5061556;28;20135;-72
2021/08/19 10:09:14;;;;;;;4.30;1.90;;;;;;;27.06;32.45;94949.03;5061179;28;20044;-72
2021/08/19 10:11:46;;;;;;;5.18;1.80;;;;;;;27.34;29.52;94943.09;5063645;28;20501;-70
2021/08/19 10:14:18;;;;;;;3.03;1.70;;;;;;;27.43;29.73;94946.41;5064057;28;20056;-70
2021/08/19 10:16:47;;;;;;;8.98;1.70;;;;;;;27.54;30.64;94915.41;5062932;28;20028;-71
2021/08/19 10:19:26;;;;;;;3.83;2.50;;;;;;;28.05;29.50;94933.69;5064426;28;20044;-71
2021/08/19 10:22:06;;;;;;;3.55;2.08;;;;;;;28.17;29.12;94938.25;5060628;28;20041;-71
2021/08/19 10:24:38;;;;;;;7.45;1.70;;;;;;;28.38;28.82;94936.16;5063122;28;20717;-69
2021/08/19 10:27:09;;;;;;;2.53;1.60;;;;;;;28.24;28.93;94935.75;5064176;28;20052;-69
2021/08/19 10:29:46;;;;;;;8.52;1.70;;;;;;;28.66;28.97;94930.00;5064939;28;20045;-68
2021/08/19 10:32:26;;;;;;;7.10;1.67;;;;;;;28.72;28.45;94934.00;5064718;28;20048;-69
2021/08/19 10:35:04;;;;;;;6.68;1.63;;;;;;;28.72;27.48;94938.56;5065144;28;20115;-70
2021/08/19 10:37:46;;;;;;;9.05;2.10;;;;;;;28.76;27.34;94934.84;5064954;28;20055;-70
2021/08/19 10:40:19;;;;;;;4.22;1.67;;;;;;;28.81;27.87;94930.34;5064682;28;20047;-70
2021/08/19 10:42:53;;;;;;;3.92;1.77;;;;;;;28.99;26.50;94926.19;5064855;28;20040;-70
2021/08/19 10:45:41;;;;;;;4.55;1.67;;;;;;;29.67;27.53;94927.00;5064545;28;20063;-69
2021/08/19 10:48:08;;;;;;;4.43;1.58;;;;;;;29.87;26.71;94917.09;5049222;28;20044;-70
2021/08/19 10:50:43;;;;;;;5.47;1.77;;;;;;;30.36;25.55;94918.44;5066082;28;20065;-70
2021/08/19 10:53:09;;;;;;;8.45;1.98;;;;;;;30.53;25.92;94912.63;5066790;28;20067;-70
2021/08/19 10:55:48;;;;;;;11.45;2.00;;;;;;;30.89;25.18;94918.59;5066284;28;20041;-70
2021/08/19 10:58:38;;;;;;;4.25;1.40;;;;;;;31.14;26.05;94923.63;5068209;28;20048;-70
2021/08/19 11:01:14;;;;;;;4.45;1.75;;;;;;;31.11;23.49;94927.03;5067344;28;20094;-70
2021/08/19 11:03:43;;;;;;;11.23;1.35;;;;;;;31.48;23.94;94916.47;5049301;28;20132;-71
2021/08/19 11:06:14;;;;;;;2.65;1.58;;;;;;;31.55;23.50;94915.81;5065628;28;20055;-71
2021/08/19 11:08:55;;;;;;;10.38;1.55;;;;;;;31.97;23.20;94912.13;5061197;28;20048;-70
2021/08/19 11:11:29;;;;;;;5.95;1.65;;;;;;;32.27;23.13;94906.72;5064446;28;20565;-71
2021/08/19 11:14:10;;;;;;;5.88;2.03;;;;;;;31.97;21.51;94914.81;5067756;28;20043;-71
2021/08/19 11:16:39;;;;;;;2.28;1.42;;;;;;;31.49;23.04;94906.47;5067015;28;20119;-70
2021/08/19 11:19:15;;;;;;;3.88;1.70;;;;;;;31.74;22.18;94912.97;5048124;28;20056;-71
2021/08/19 11:21:50;;;;;;;4.72;1.63;;;;;;;31.27;22.40;94900.78;5066818;28;20147;-71
2021/08/19 11:24:18;;;;;;;4.75;1.63;;;;;;;31.31;22.92;94895.44;5066794;28;20232;-72
2021/08/19 11:27:09;;;;;;;3.53;1.75;;;;;;;31.23;22.22;94908.03;5066055;28;20076;-70
2021/08/19 11:29:41;;;;;;;4.05;1.60;;;;;;;31.44;23.38;94902.94;5067330;28;20048;-71
2021/08/19 11:32:27;;;;;;;3.35;1.90;;;;;;;31.78;21.85;94897.66;5065658;28;20048;-70
2021/08/19 11:34:54;;;;;;;6.75;1.98;;;;;;;31.70;22.09;94895.25;5067279;28;20044;-70
2021/08/19 11:37:29;;;;;;;3.53;1.55;;;;;;;31.74;21.84;94896.81;5066611;28;20048;-70
2021/08/19 11:39:59;;;;;;;4.35;1.70;;;;;;;32.25;22.55;94892.03;5067112;28;20052;-70